Nearby METAR Reports

 

KIWA - Chandler/Mesa, Arizona, USA
Distance from station: SSW 10mi, 16km
Updated: Fri, 07-May-2021 2:50pm MST
Well-developed dust/sand whirls, Clear
Well-developed dust/sand whirls, Clear
 Wind from WNW
Wind: WNW 12 mph , 19 km/h, Gust: 20 mph , 31 km/h
Temperature: 93°F , 34°C
Dew Point: 19°F , -7°C
Humidity: 7%
Barometer: 29.85 inHg , 1010.8 hPa
Summary: Well-developed dust, Sand whirls
Clouds: Clear
Visibility: 10 miles , 16 km
2021/05/07 21:50 KIWA 072150Z 29010G17KT 10SM PO SKC 34/M07 A2985
KFFZ - Mesa/Falcon Fld, Arizona, USA
Distance from station: WNW 8mi, 13km
Updated: Fri, 07-May-2021 2:54pm MST
Clear
Clear
 Wind from WSW
Wind: WSW 12 mph , 19 km/h, Gust: 17 mph , 28 km/h
Temperature: 93°F , 34°C
Dew Point: 19°F , -7°C
Humidity: 7%
Barometer: 29.83 inHg , 1010.2 hPa
Clouds: Clear
Visibility: 10 miles , 16 km
2021/05/07 21:54 KFFZ 072154Z 24010G15KT 190V260 10SM CLR 34/M07 A2983 RMK AO2 SLP077 T03391067
KPHX - Phoenix/Sky Hrbr, Arizona, USA
Distance from station: W 25mi, 41km
Updated: Fri, 07-May-2021 2:51pm MST
Clear
Clear
 
Temperature: 93°F , 34°C
Dew Point: 23°F , -5°C
Humidity: 8%
Barometer: 29.81 inHg , 1009.5 hPa
Clouds: Clear
Visibility: 10 miles , 16 km
2021/05/07 21:51 KPHX 072151Z 10SM CLR 34/M05 A2981 RMK AO2 SLP074 T03441050

Metar display script from Saratoga-Weather.org